Time;durP1;ratioP1;P1;durP2;ratioP2;P2;SDS_P1;SDS_P2;PMS_P1;PMS_P2;Temp;Humidity;BMP_temperature;BMP_pressure;BME280_temperature;BME280_humidity;BME280_pressure;Samples;Min_cycle;Max_cycle;Signal;HPM_P1;HPM_P2
2023/02/21 02:14:05;;;;;;;;;6.75;6.75;;;;;9.25;52.32;101626.31;146622;564;46021;-84
2023/02/21 02:17:46;;;;;;;;;12.00;9.50;;;;;7.27;52.37;101298.53;146617;616;46016;-81
2023/02/21 02:21:43;;;;;;;;;;;;;;;;;;;;;
2023/02/21 02:25:28;;;;;;;;;6.75;6.25;;;;;7.09;53.60;101329.88;146612;592;46016;-80
2023/02/21 02:29:16;;;;;;;;;8.00;6.00;;;;;6.78;54.71;101284.56;146621;566;46021;-79
2023/02/21 02:32:47;;;;;;;;;6.50;6.50;;;;;7.75;54.70;101455.16;146619;681;46016;-81
2023/02/21 02:36:26;;;;;;;;;7.50;4.50;;;;;6.83;55.42;101290.97;146623;597;46011;-81
2023/02/21 02:40:01;;;;;;;;;9.00;9.00;;;;;6.77;54.81;101278.50;146620;623;46012;-82
2023/02/21 02:43:56;;;;;;;;;6.75;6.00;;;;;8.69;53.59;101597.28;146617;636;46010;-80
2023/02/21 02:47:08;;;;;;;;;6.25;5.25;;;;;8.80;54.96;101601.56;146618;585;46016;-81
2023/02/21 02:50:05;;;;;;;;;8.25;7.75;;;;;8.88;55.03;101596.94;146620;648;46010;-86
2023/02/21 02:53:11;;;;;;;;;10.75;9.50;;;;;8.95;53.62;101601.78;146620;608;46016;-81
2023/02/21 02:56:22;;;;;;;;;8.75;7.25;;;;;9.04;53.43;101605.03;146619;563;47020;-85
2023/02/21 02:59:44;;;;;;;;;7.00;5.25;;;;;9.18;52.90;101608.56;146621;588;46013;-82
2023/02/21 03:03:33;;;;;;;;;7.25;6.50;;;;;9.34;52.48;101607.97;146623;569;46012;-82
2023/02/21 03:07:00;;;;;;;;;6.75;6.75;;;;;8.36;52.80;101430.31;146617;571;46017;-83
2023/02/21 03:10:40;;;;;;;;;6.00;5.75;;;;;9.16;54.53;101598.12;146622;589;46009;-88
2023/02/21 03:14:13;;;;;;;;;8.00;6.50;;;;;9.01;53.54;101585.00;146617;569;46913;-82
2023/02/21 03:17:30;;;;;;;;;7.50;6.75;;;;;7.01;53.24;101247.59;146623;615;46010;-87
2023/02/21 03:20:45;;;;;;;;;5.00;5.00;;;;;8.79;55.09;101582.56;146613;586;47914;-76
2023/02/21 03:23:50;;;;;;;;;8.75;6.00;;;;;8.68;54.05;101573.13;146619;590;46020;-80
2023/02/21 03:26:51;;;;;;;;;7.00;7.00;;;;;8.69;53.65;101579.19;146619;582;46012;-80
2023/02/21 03:30:20;;;;;;;;;;;;;;;;;;;;;
2023/02/21 03:33:18;;;;;;;;;9.25;7.50;;;;;8.74;53.87;101572.69;146620;575;46012;-81
2023/02/21 03:36:38;;;;;;;;;7.50;6.50;;;;;6.87;53.20;101244.00;146620;572;46010;-75
2023/02/21 03:39:57;;;;;;;;;5.75;5.75;;;;;8.74;52.87;101560.62;146615;718;46016;-77
2023/02/21 03:42:49;;;;;;;;;8.50;6.50;;;;;8.75;53.77;101559.88;146623;591;46012;-76
2023/02/21 03:46:05;;;;;;;;;7.00;6.00;;;;;8.74;53.12;101563.22;146616;614;46016;-76
2023/02/21 03:49:04;;;;;;;;;10.25;7.75;;;;;8.76;53.46;101561.66;146624;589;46010;-77
2023/02/21 03:52:12;;;;;;;;;;;;;;;;;;;;;
2023/02/21 03:55:13;;;;;;;;;7.75;7.75;;;;;8.84;54.00;101550.94;146622;594;46020;-77
2023/02/21 03:58:08;;;;;;;;;11.50;9.50;;;;;8.69;55.10;101551.69;146616;612;46017;-77
2023/02/21 04:01:03;;;;;;;;;9.50;7.75;;;;;8.56;54.80;101552.44;146623;599;46010;-78
2023/02/21 04:04:01;;;;;;;;;17.50;12.75;;;;;8.53;54.04;101564.25;146617;570;46912;-78
2023/02/21 04:07:04;;;;;;;;;19.00;12.00;;;;;8.58;53.96;101565.50;146616;629;48010;-78
2023/02/21 04:10:02;;;;;;;;;7.00;6.50;;;;;8.66;54.00;101566.03;146616;573;46016;-79
2023/02/21 04:12:58;;;;;;;;;9.50;8.25;;;;;8.72;53.79;101570.00;146619;581;46011;-79
2023/02/21 04:16:02;;;;;;;;;7.75;6.50;;;;;8.78;54.05;101564.34;146619;588;46012;-77
2023/02/21 04:19:03;;;;;;;;;10.75;9.75;;;;;8.79;54.25;101573.91;146619;572;46020;-77
2023/02/21 04:22:06;;;;;;;;;14.50;14.25;;;;;8.80;54.50;101567.94;146620;613;46012;-81
2023/02/21 04:25:16;;;;;;;;;18.50;13.50;;;;;8.78;53.85;101554.00;146621;598;46020;-78
2023/02/21 04:28:17;;;;;;;;;14.00;11.00;;;;;8.81;54.46;101561.97;146618;582;46016;-79
2023/02/21 04:31:12;;;;;;;;;15.00;12.25;;;;;8.87;53.79;101566.69;146621;563;46012;-81
2023/02/21 04:34:21;;;;;;;;;;;;;;;;;;;;;
2023/02/21 04:37:18;;;;;;;;;13.00;12.00;;;;;8.76;54.07;101561.66;146619;610;46023;-73
2023/02/21 04:40:14;;;;;;;;;14.25;12.75;;;;;8.72;54.30;101574.25;146617;748;46016;-72
2023/02/21 04:43:24;;;;;;;;;11.50;10.00;;;;;8.63;55.22;101569.31;146620;582;46010;-75
2023/02/21 04:46:21;;;;;;;;;9.75;9.75;;;;;8.51;55.40;101561.56;146618;612;46012;-73
2023/02/21 04:49:26;;;;;;;;;11.75;10.00;;;;;8.43;56.91;101561.78;146621;597;46011;-72
2023/02/21 04:52:44;;;;;;;;;13.00;10.00;;;;;8.30;57.47;101559.97;146619;579;46012;-73
2023/02/21 04:55:43;;;;;;;;;9.75;8.25;;;;;8.24;58.31;101564.69;146621;571;46020;-73
2023/02/21 04:58:38;;;;;;;;;13.25;11.25;;;;;8.23;58.11;101563.78;146620;638;46012;-73
2023/02/21 05:01:49;;;;;;;;;12.25;10.00;;;;;8.28;59.27;101553.78;146622;566;46020;-76
2023/02/21 05:04:45;;;;;;;;;13.50;11.50;;;;;8.28;61.56;101562.41;146610;585;46017;-76
2023/02/21 05:08:03;;;;;;;;;15.25;12.00;;;;;8.26;60.39;101560.53;146623;640;46010;-75
2023/02/21 05:11:10;;;;;;;;;11.00;11.00;;;;;8.20;61.99;101560.97;146620;564;46012;-72
2023/02/21 05:14:08;;;;;;;;;11.25;11.25;;;;;8.16;62.09;101558.03;146621;597;46010;-70
2023/02/21 05:17:14;;;;;;;;;12.75;11.00;;;;;8.14;61.10;101549.31;146619;565;46014;-71
2023/02/21 05:20:19;;;;;;;;;11.50;11.50;;;;;8.13;60.90;101543.25;146622;575;46021;-72
2023/02/21 05:23:15;;;;;;;;;16.25;13.25;;;;;8.21;59.21;101556.72;146617;707;46016;-72
2023/02/21 05:26:34;;;;;;;;;;;;;;;;;;;;;
2023/02/21 05:29:38;;;;;;;;;17.00;15.00;;;;;8.40;57.77;101553.81;146618;580;46016;-72
2023/02/21 05:32:36;;;;;;;;;9.50;9.50;;;;;8.54;57.11;101558.31;146623;592;45020;-72
2023/02/21 05:35:33;;;;;;;;;27.50;24.25;;;;;7.75;56.52;101396.69;146620;563;46012;-72
2023/02/21 05:39:12;;;;;;;;;62.25;46.50;;;;;7.30;54.79;101285.84;146620;634;46012;-73
2023/02/21 05:42:06;;;;;;;;;22.75;21.50;;;;;9.01;56.28;101566.88;146615;572;46914;-72
2023/02/21 05:45:05;;;;;;;;;24.50;22.25;;;;;9.11;55.84;101571.03;146619;599;46020;-72
2023/02/21 05:48:31;;;;;;;;;25.25;20.75;;;;;9.26;55.91;101576.37;146617;627;46015;-73
2023/02/21 05:51:52;;;;;;;;;;;;;;;;;;;;;
2023/02/21 05:54:52;;;;;;;;;19.75;17.00;;;;;11.20;54.64;101567.62;146618;574;46014;-70
2023/02/21 05:57:55;;;;;;;;;22.00;20.25;;;;;12.31;50.62;101569.97;146623;571;46010;-74
2023/02/21 06:01:13;;;;;;;;;30.75;24.75;;;;;13.22;48.96;101557.66;146617;598;46016;-74
2023/02/21 06:04:14;;;;;;;;;40.50;32.25;;;;;14.21;46.51;101572.41;146617;590;47010;-77
2023/02/21 06:07:17;;;;;;;;;27.00;23.50;;;;;14.87;45.22;101569.53;146616;584;46016;-72
2023/02/21 06:10:17;;;;;;;;;28.75;26.50;;;;;15.38;43.20;101575.34;146619;650;47010;-73
2023/02/21 06:13:16;;;;;;;;;28.25;23.75;;;;;15.85;42.81;101574.88;146617;581;46016;-72
2023/02/21 06:16:11;;;;;;;;;30.00;25.00;;;;;16.38;41.28;101577.97;146618;578;46020;-72
2023/02/21 06:19:09;;;;;;;;;35.75;29.75;;;;;16.82;41.12;101568.41;146616;579;46017;-71
2023/02/21 06:22:06;;;;;;;;;52.75;41.50;;;;;17.25;40.65;101570.97;146619;593;46010;-71
2023/02/21 06:25:01;;;;;;;;;42.00;33.50;;;;;17.39;39.94;101581.97;146617;639;46015;-72
2023/02/21 06:27:53;;;;;;;;;44.75;35.00;;;;;17.54;38.65;101584.28;146621;656;46010;-72
2023/02/21 06:30:58;;;;;;;;;35.00;30.50;;;;;17.62;39.16;101588.06;146615;579;46016;-72
2023/02/21 06:34:03;;;;;;;;;29.75;23.75;;;;;17.63;38.65;101579.37;146619;661;46021;-72
2023/02/21 06:37:10;;;;;;;;;;;;;;;;;;;;;
2023/02/21 06:40:05;;;;;;;;;24.50;19.75;;;;;17.53;39.43;101583.34;146621;572;46010;-72
2023/02/21 06:43:09;;;;;;;;;21.50;20.25;;;;;17.67;38.57;101580.38;146619;607;46012;-72
2023/02/21 06:46:04;;;;;;;;;22.00;18.00;;;;;17.73;38.67;101581.47;146618;577;46010;-73
2023/02/21 06:48:57;;;;;;;;;19.75;17.50;;;;;17.64;37.50;101575.91;146619;586;46013;-72
2023/02/21 06:52:12;;;;;;;;;30.50;27.00;;;;;16.00;39.08;101328.75;146624;610;46010;-72
2023/02/21 06:55:16;;;;;;;;;29.25;27.25;;;;;17.27;39.46;101576.28;146619;577;46016;-73
2023/02/21 06:58:14;;;;;;;;;34.00;26.00;;;;;17.20;40.42;101574.25;146621;598;45576;-72
2023/02/21 07:01:10;;;;;;;;;32.00;28.25;;;;;17.16;40.36;101573.22;146617;633;46016;-72
2023/02/21 07:04:33;;;;;;;;;28.50;24.75;;;;;17.14;39.66;101584.50;146617;648;46021;-73
2023/02/21 07:07:37;;;;;;;;;25.50;21.50;;;;;16.81;38.97;101584.97;146618;617;46014;-71
2023/02/21 07:10:35;;;;;;;;;27.75;24.00;;;;;16.38;40.64;101575.34;146619;574;46020;-71
2023/02/21 07:13:57;;;;;;;;;28.25;25.75;;;;;14.72;41.03;101312.13;146615;618;46014;-71
2023/02/21 07:17:04;;;;;;;;;30.25;20.75;;;;;16.17;41.21;101575.38;146618;603;46021;-71
2023/02/21 07:20:37;;;;;;;;;;;;;;;;;;;;;
2023/02/21 07:23:56;;;;;;;;;34.75;30.50;;;;;16.29;40.91;101565.41;146621;658;45025;-72
2023/02/21 07:26:52;;;;;;;;;46.50;36.50;;;;;16.46;40.04;101567.81;146617;609;46012;-71
2023/02/21 07:29:59;;;;;;;;;37.00;30.50;;;;;16.65;41.22;101564.22;146623;664;46010;-72
2023/02/21 07:32:58;;;;;;;;;34.25;30.25;;;;;16.83;39.97;101559.75;146620;726;46013;-72
2023/02/21 07:36:08;;;;;;;;;;;;;;;;;;;;;
2023/02/21 07:39:17;;;;;;;;;23.25;23.25;;;;;15.48;40.24;101277.91;146620;648;45018;-72
2023/02/21 07:42:30;;;;;;;;;29.00;24.25;;;;;17.10;37.37;101546.78;146617;563;46010;-74
2023/02/21 07:45:28;;;;;;;;;25.50;25.25;;;;;17.15;39.11;101544.34;146617;608;46916;-72
2023/02/21 07:48:42;;;;;;;;;28.00;24.00;;;;;15.75;39.22;101272.00;146614;677;46012;-72
2023/02/21 07:51:50;;;;;;;;;29.50;28.50;;;;;17.25;37.61;101536.88;146617;588;46016;-72
2023/02/21 07:55:02;;;;;;;;;28.25;26.25;;;;;15.79;38.96;101286.06;146617;628;46011;-72
2023/02/21 07:58:07;;;;;;;;;32.75;27.50;;;;;17.33;38.19;101533.66;146619;577;46021;-71
2023/02/21 08:01:03;;;;;;;;;37.00;30.75;;;;;17.45;38.77;101529.75;146618;709;46040;-72
2023/02/21 08:04:13;;;;;;;;;;;;;;;;;;;;;
2023/02/21 08:07:27;;;;;;;;;;;;;;;;;;;;;
2023/02/21 08:10:28;;;;;;;;;33.50;29.75;;;;;17.97;38.50;101517.59;146615;635;46016;-76
2023/02/21 08:13:27;;;;;;;;;29.75;25.75;;;;;18.17;37.27;101520.91;146620;597;46020;-74
2023/02/21 08:16:21;;;;;;;;;27.25;25.00;;;;;18.34;36.89;101519.69;146614;614;46017;-77
2023/02/21 08:19:18;;;;;;;;;26.25;23.75;;;;;18.48;37.11;101511.37;146616;633;47012;-77
2023/02/21 08:22:13;;;;;;;;;26.75;24.25;;;;;18.61;36.27;101513.53;146615;708;45028;-73
2023/02/21 08:25:16;;;;;;;;;21.50;20.75;;;;;18.69;35.52;101506.78;146619;586;46021;-74
2023/02/21 08:28:19;;;;;;;;;28.50;27.50;;;;;18.75;37.18;101512.25;146616;575;46016;-72
2023/02/21 08:31:19;;;;;;;;;28.25;27.50;;;;;18.85;36.43;101509.06;146620;566;46011;-73
2023/02/21 08:34:24;;;;;;;;;24.50;23.00;;;;;18.92;36.79;101504.87;146616;594;46014;-72
2023/02/21 08:37:32;;;;;;;;;26.25;24.25;;;;;18.99;36.29;101505.97;146619;651;45030;-72
2023/02/21 08:40:38;;;;;;;;;24.25;21.75;;;;;19.04;36.93;101501.72;146615;678;46012;-76
2023/02/21 08:43:36;;;;;;;;;28.25;26.50;;;;;19.15;35.99;101506.44;146619;573;46010;-79
2023/02/21 08:47:03;;;;;;;;;25.50;24.50;;;;;19.20;35.65;101501.31;146611;590;47013;-80
2023/02/21 08:50:04;;;;;;;;;28.25;24.50;;;;;19.22;36.53;101493.47;146615;629;46020;-77
2023/02/21 08:53:19;;;;;;;;;24.50;21.25;;;;;19.33;36.87;101485.03;146613;670;46017;-78
2023/02/21 08:56:33;;;;;;;;;16.50;15.75;;;;;19.49;37.21;101491.59;146618;609;46012;-77
2023/02/21 08:59:46;;;;;;;;;;;;;;;;;;;;;
2023/02/21 09:02:42;;;;;;;;;20.00;20.00;;;;;19.49;36.50;101485.44;146619;577;47010;-79
2023/02/21 09:05:45;;;;;;;;;25.00;24.00;;;;;19.38;36.99;101485.19;146611;705;46016;-79
2023/02/21 09:08:56;;;;;;;;;;;;;;;;;;;;;
2023/02/21 09:11:56;;;;;;;;;19.00;17.00;;;;;19.35;36.56;101474.56;146614;605;46016;-77
2023/02/21 09:15:01;;;;;;;;;19.75;18.75;;;;;19.43;36.87;101477.41;146617;565;47013;-75
2023/02/21 09:18:21;;;;;;;;;20.00;18.00;;;;;19.51;35.13;101467.97;146615;572;46017;-75
2023/02/21 09:21:22;;;;;;;;;18.50;17.50;;;;;19.60;36.72;101473.50;146618;671;46020;-75
2023/02/21 09:24:33;;;;;;;;;;;;;;;;;;;;;
2023/02/21 09:27:38;;;;;;;;;19.75;17.25;;;;;19.91;35.92;101469.94;146618;622;46010;-74
2023/02/21 09:30:39;;;;;;;;;15.50;14.75;;;;;20.06;36.34;101461.50;146618;572;46012;-75
2023/02/21 09:34:07;;;;;;;;;17.25;17.00;;;;;19.31;37.54;101323.69;146618;600;46020;-75
2023/02/21 09:37:09;;;;;;;;;16.25;14.75;;;;;20.32;37.32;101466.50;146608;569;47016;-75
2023/02/21 09:40:58;;;;;;;;;14.00;13.50;;;;;19.11;37.43;101232.94;146618;569;46012;-76
2023/02/21 09:44:18;;;;;;;;;21.50;14.50;;;;;20.50;35.51;101445.88;146616;600;46018;-75
2023/02/21 09:47:26;;;;;;;;;17.75;16.00;;;;;20.53;36.41;101446.84;146619;576;46010;-75
2023/02/21 09:50:29;;;;;;;;;16.75;16.00;;;;;20.55;37.27;101446.87;146616;634;45914;-75
2023/02/21 09:53:38;;;;;;;;;16.50;13.75;;;;;20.66;36.55;101437.47;146619;600;46010;-75
2023/02/21 09:57:09;;;;;;;;;16.50;15.75;;;;;20.69;38.86;101447.19;146615;563;46012;-74
2023/02/21 10:00:05;;;;;;;;;15.00;12.25;;;;;20.51;37.19;101445.91;146619;603;47021;-76
2023/02/21 10:03:33;;;;;;;;;14.00;12.25;;;;;20.43;38.80;101441.28;146617;569;46016;-74
2023/02/21 10:06:48;;;;;;;;;13.75;12.75;;;;;20.48;37.85;101430.00;146617;611;46020;-73
2023/02/21 10:10:12;;;;;;;;;14.25;12.75;;;;;20.63;36.95;101421.59;146618;569;46012;-74
2023/02/21 10:13:41;;;;;;;;;12.75;12.00;;;;;19.44;36.36;101179.34;146617;595;47020;-74
2023/02/21 10:16:45;;;;;;;;;16.25;12.00;;;;;20.86;36.04;101400.97;146618;664;46014;-74
2023/02/21 10:19:47;;;;;;;;;14.00;10.75;;;;;20.95;36.52;101387.97;146619;579;46010;-75
2023/02/21 10:22:46;;;;;;;;;15.00;14.00;;;;;21.12;35.96;101385.66;146617;658;46014;-75
2023/02/21 10:26:09;;;;;;;;;13.75;12.25;;;;;21.25;36.46;101372.69;146621;598;46010;-74
2023/02/21 10:29:27;;;;;;;;;15.00;13.00;;;;;21.28;36.70;101359.53;146617;578;46016;-74
2023/02/21 10:32:55;;;;;;;;;12.00;12.00;;;;;21.42;36.69;101356.31;146623;632;46010;-75
2023/02/21 10:36:00;;;;;;;;;7.75;6.50;;;;;21.50;35.64;101337.09;146611;693;46016;-74
2023/02/21 10:39:45;;;;;;;;;14.50;13.25;;;;;20.17;37.69;101096.66;146619;571;46021;-74
2023/02/21 10:43:06;;;;;;;;;15.00;13.25;;;;;21.63;37.11;101347.00;146618;592;46016;-74
2023/02/21 10:46:54;;;;;;;;;;;;;;;;;;;;;
2023/02/21 10:50:23;;;;;;;;;15.50;15.50;;;;;21.67;36.64;101330.31;146618;571;46012;-74
2023/02/21 10:54:10;;;;;;;;;14.00;12.00;;;;;19.69;36.99;100996.63;146620;581;47011;-74
2023/02/21 10:57:21;;;;;;;;;12.75;12.25;;;;;21.48;36.31;101318.59;146615;565;46016;-74
2023/02/21 11:01:03;;;;;;;;;12.00;11.00;;;;;21.45;36.50;101305.34;146619;617;46010;-75
2023/02/21 11:04:39;;;;;;;;;12.25;11.75;;;;;21.56;36.07;101306.44;146617;563;46012;-74
2023/02/21 11:07:46;;;;;;;;;15.50;12.00;;;;;21.74;35.88;101289.06;146620;604;46021;-74
2023/02/21 11:11:15;;;;;;;;;14.25;12.50;;;;;20.47;36.62;101034.84;146615;583;46016;-74
2023/02/21 11:15:14;;;;;;;;;11.25;10.25;;;;;20.73;37.56;101040.53;146617;665;46021;-73
2023/02/21 11:18:43;;;;;;;;;12.50;12.50;;;;;22.39;36.05;101265.31;146618;598;45018;-73
2023/02/21 11:22:00;;;;;;;;;16.00;12.75;;;;;22.54;36.40;101254.91;146614;596;47013;-73
2023/02/21 11:25:08;;;;;;;;;14.25;12.75;;;;;22.61;34.89;101247.91;146615;626;46016;-73
2023/02/21 11:28:26;;;;;;;;;13.00;12.75;;;;;22.53;34.95;101249.63;146619;569;46020;-73
2023/02/21 11:31:51;;;;;;;;;15.50;12.00;;;;;22.39;33.12;101232.72;146615;587;46016;-74
2023/02/21 11:35:06;;;;;;;;;12.75;11.25;;;;;22.35;33.62;101226.50;146618;640;46010;-74
2023/02/21 11:38:13;;;;;;;;;16.00;13.75;;;;;22.43;36.08;101218.66;146616;564;46027;-76
2023/02/21 11:41:41;;;;;;;;;11.00;10.00;;;;;21.13;34.83;100986.63;146618;569;46020;-76
2023/02/21 11:45:21;;;;;;;;;13.75;13.00;;;;;22.50;35.74;101204.66;146619;614;46013;-72
2023/02/21 11:48:49;;;;;;;;;12.00;10.00;;;;;21.87;35.73;101072.81;146620;617;46020;-73
2023/02/21 11:52:26;;;;;;;;;11.75;11.50;;;;;21.23;34.78;100953.31;146614;564;46016;-71
2023/02/21 11:55:31;;;;;;;;;14.00;12.50;;;;;22.63;33.98;101189.81;146619;591;47010;-73
2023/02/21 11:58:44;;;;;;;;;12.00;11.50;;;;;22.68;33.64;101183.69;146615;576;46016;-72
2023/02/21 12:02:18;;;;;;;;;16.00;13.75;;;;;22.71;35.35;101177.53;146620;599;46020;-73
2023/02/21 12:05:57;;;;;;;;;15.00;13.25;;;;;21.32;33.75;100919.13;146615;607;46016;-72
2023/02/21 12:09:49;;;;;;;;;11.25;11.00;;;;;21.40;34.89;100928.06;146621;567;46010;-73
2023/02/21 12:13:35;;;;;;;;;12.00;10.00;;;;;21.45;34.30;100936.88;146612;667;48017;-73
2023/02/21 12:17:13;;;;;;;;;12.50;11.50;;;;;22.63;34.39;101153.69;146620;569;46020;-73
2023/02/21 12:21:06;;;;;;;;;10.75;10.75;;;;;21.30;35.08;100904.16;146615;586;46012;-73
2023/02/21 12:24:45;;;;;;;;;12.25;11.00;;;;;22.69;34.05;101132.59;146620;575;46020;-73
2023/02/21 12:28:25;;;;;;;;;14.50;10.50;;;;;21.56;35.68;100955.47;146615;686;46016;-72
2023/02/21 12:32:20;;;;;;;;;12.00;10.50;;;;;20.93;35.00;100862.47;146619;579;46010;-74
2023/02/21 12:35:49;;;;;;;;;12.75;12.25;;;;;21.01;35.37;100870.47;146616;600;47012;-73
2023/02/21 12:39:34;;;;;;;;;12.25;10.25;;;;;21.03;35.51;100858.19;146617;706;46021;-72
2023/02/21 12:43:04;;;;;;;;;11.00;10.25;;;;;22.57;34.59;101106.06;146620;594;46012;-73
2023/02/21 12:46:48;;;;;;;;;11.00;10.75;;;;;22.55;34.47;101100.78;146621;634;46012;-72
2023/02/21 12:50:46;;;;;;;;;10.00;10.00;;;;;21.43;34.81;100883.25;146616;569;47012;-74
2023/02/21 12:54:02;;;;;;;;;10.50;9.00;;;;;22.76;34.40;101099.16;146617;590;46021;-73
2023/02/21 12:57:18;;;;;;;;;9.00;9.00;;;;;22.71;34.20;101092.94;146616;597;46916;-73
2023/02/21 13:00:59;;;;;;;;;14.00;10.75;;;;;21.91;34.63;100970.75;146622;581;46033;-72
2023/02/21 13:04:35;;;;;;;;;10.50;9.00;;;;;20.84;34.42;100779.78;146615;565;47012;-73
2023/02/21 13:07:55;;;;;;;;;10.75;10.25;;;;;21.25;33.55;100854.03;146617;625;46021;-73
2023/02/21 13:11:41;;;;;;;;;9.75;8.50;;;;;21.16;34.24;100828.44;146613;615;46016;-73
2023/02/21 13:14:55;;;;;;;;;10.75;9.25;;;;;22.66;33.36;101078.81;146621;621;47011;-73
2023/02/21 13:18:28;;;;;;;;;11.00;10.25;;;;;22.69;34.35;101078.84;146618;624;46916;-74
2023/02/21 13:21:58;;;;;;;;;13.00;12.75;;;;;22.71;34.54;101067.41;146618;580;46011;-72
2023/02/21 13:25:54;;;;;;;;;10.75;10.75;;;;;21.22;34.97;100815.31;146618;564;46012;-72
2023/02/21 13:29:23;;;;;;;;;6.50;6.50;;;;;22.65;34.09;101066.44;146618;619;46012;-73
2023/02/21 13:32:32;;;;;;;;;;;;;;;;;;;;;
2023/02/21 13:35:45;;;;;;;;;12.75;10.75;;;;;22.65;32.73;101061.16;146619;594;46010;-71
2023/02/21 13:38:51;;;;;;;;;8.75;7.00;;;;;22.62;34.53;101058.50;146613;618;46016;-72
2023/02/21 13:42:03;;;;;;;;;12.00;11.00;;;;;22.61;34.25;101054.97;146616;589;46020;-72
2023/02/21 13:45:45;;;;;;;;;11.50;10.50;;;;;21.71;34.51;100899.28;146616;577;47012;-73
2023/02/21 13:48:45;;;;;;;;;10.75;10.25;;;;;22.70;32.62;101049.75;146617;628;46020;-72
2023/02/21 13:52:30;;;;;;;;;11.75;10.00;;;;;21.57;34.06;100822.66;146616;647;46914;-72
2023/02/21 13:55:36;;;;;;;;;9.25;9.25;;;;;23.05;31.48;101054.41;146615;680;47010;-72
2023/02/21 13:58:52;;;;;;;;;11.00;10.00;;;;;22.96;33.82;101054.34;146615;615;47013;-72
2023/02/21 14:02:01;;;;;;;;;12.75;12.75;;;;;22.74;31.93;101035.72;146615;588;46020;-72
2023/02/21 14:05:16;;;;;;;;;11.00;9.75;;;;;22.40;32.70;101039.88;146613;580;46012;-72
2023/02/21 14:08:45;;;;;;;;;16.75;14.75;;;;;22.03;33.85;101042.16;146620;589;47010;-72
2023/02/21 14:11:47;;;;;;;;;15.75;13.00;;;;;21.77;33.60;101033.97;146614;566;46017;-72
2023/02/21 14:14:51;;;;;;;;;14.25;11.75;;;;;21.62;33.93;101031.16;146621;599;45021;-73
2023/02/21 14:18:08;;;;;;;;;13.25;12.25;;;;;21.46;35.29;101030.09;146617;615;46014;-72
2023/02/21 14:21:31;;;;;;;;;14.25;14.00;;;;;20.04;34.27;100799.87;146618;602;47021;-72
2023/02/21 14:24:51;;;;;;;;;12.25;12.00;;;;;19.82;35.83;100778.50;146612;582;46016;-73
2023/02/21 14:27:48;;;;;;;;;13.25;12.50;;;;;21.19;32.87;101020.09;146617;582;46021;-72
2023/02/21 14:30:43;;;;;;;;;15.25;13.00;;;;;21.08;33.89;101019.06;146617;563;46012;-72
2023/02/21 14:33:37;;;;;;;;;10.25;10.25;;;;;21.02;33.75;101017.22;146616;564;47020;-73
2023/02/21 14:36:38;;;;;;;;;11.00;10.00;;;;;21.01;33.97;101012.81;146616;585;46014;-72
2023/02/21 14:40:08;;;;;;;;;10.00;10.00;;;;;19.55;35.83;100765.78;146618;570;46020;-72
2023/02/21 14:43:30;;;;;;;;;14.50;12.00;;;;;20.96;34.84;101020.66;146616;624;47013;-73
2023/02/21 14:47:07;;;;;;;;;14.00;12.00;;;;;20.92;35.68;101012.69;146617;584;46010;-74
2023/02/21 14:50:38;;;;;;;;;10.50;10.00;;;;;20.92;35.61;101016.22;146616;615;46017;-73
2023/02/21 14:54:27;;;;;;;;;12.50;9.00;;;;;20.89;35.31;101008.25;146621;697;46010;-73
2023/02/21 14:58:00;;;;;;;;;9.75;8.00;;;;;20.80;35.26;100997.59;146617;569;46914;-73
2023/02/21 15:01:38;;;;;;;;;;;;;;;;;;;;;
2023/02/21 15:04:44;;;;;;;;;13.25;12.75;;;;;20.72;35.25;101005.41;146617;566;46016;-73
2023/02/21 15:08:17;;;;;;;;;13.50;9.50;;;;;18.84;36.31;100676.16;146619;588;46020;-73
2023/02/21 15:11:42;;;;;;;;;12.00;10.00;;;;;20.64;35.59;101000.88;146619;646;46912;-74
2023/02/21 15:15:12;;;;;;;;;12.50;11.00;;;;;20.57;35.21;100991.12;146618;618;46020;-73
2023/02/21 15:18:43;;;;;;;;;;;;;;;;;;;;;
2023/02/21 15:21:44;;;;;;;;;11.00;9.00;;;;;20.34;34.81;100998.63;146618;600;46020;-73
2023/02/21 15:24:44;;;;;;;;;13.00;10.00;;;;;20.29;34.50;100998.56;146617;676;46016;-73
2023/02/21 15:27:39;;;;;;;;;10.00;9.75;;;;;20.23;34.58;100991.44;146620;570;46011;-73
2023/02/21 15:31:01;;;;;;;;;11.00;11.00;;;;;20.13;34.96;100991.28;146617;662;46016;-73
2023/02/21 15:33:56;;;;;;;;;26.00;23.25;;;;;20.04;36.07;101005.19;146618;567;47020;-74
2023/02/21 15:36:56;;;;;;;;;18.25;15.50;;;;;19.87;35.60;100996.97;146615;566;46012;-73
2023/02/21 15:40:21;;;;;;;;;17.25;15.75;;;;;18.59;36.78;100811.34;146616;647;46020;-73
2023/02/21 15:43:31;;;;;;;;;21.75;17.25;;;;;19.46;36.94;100994.44;146613;620;46019;-72
2023/02/21 15:46:54;;;;;;;;;19.50;17.50;;;;;18.18;37.46;100811.38;146619;577;46020;-72
2023/02/21 15:50:10;;;;;;;;;25.00;22.75;;;;;19.13;37.47;100992.94;146615;611;46016;-72
2023/02/21 15:53:35;;;;;;;;;25.75;23.00;;;;;19.01;38.18;101002.31;146619;600;46020;-73
2023/02/21 15:56:43;;;;;;;;;35.50;27.75;;;;;18.91;38.26;101004.72;146614;574;46016;-73
2023/02/21 16:00:13;;;;;;;;;41.50;32.75;;;;;18.78;39.02;101005.28;146620;650;46010;-72
2023/02/21 16:03:31;;;;;;;;;26.00;23.50;;;;;18.57;39.41;101007.44;146618;582;46016;-73
2023/02/21 16:06:39;;;;;;;;;19.00;15.00;;;;;18.36;39.70;101003.44;146621;624;46010;-73
2023/02/21 16:09:46;;;;;;;;;24.50;20.25;;;;;18.21;41.09;101009.19;146618;684;47012;-72
2023/02/21 16:13:01;;;;;;;;;19.00;18.00;;;;;17.99;40.98;101007.75;146619;615;47010;-73
2023/02/21 16:15:54;;;;;;;;;23.00;20.00;;;;;17.83;41.18;101004.72;146616;572;46016;-73
2023/02/21 16:19:01;;;;;;;;;25.75;22.50;;;;;17.68;42.41;101005.16;146619;569;46010;-74
2023/02/21 16:22:42;;;;;;;;;29.00;23.50;;;;;17.50;41.34;101003.78;146616;588;46014;-72
2023/02/21 16:25:38;;;;;;;;;32.00;29.00;;;;;17.35;42.82;101006.00;146619;613;46013;-72
2023/02/21 16:28:49;;;;;;;;;30.25;26.00;;;;;17.28;42.05;101012.78;146616;650;46016;-73
2023/02/21 16:31:44;;;;;;;;;27.25;22.75;;;;;17.14;43.38;101002.78;146621;570;46021;-73
2023/02/21 16:34:50;;;;;;;;;26.25;23.25;;;;;16.96;43.34;101006.63;146617;583;45024;-72
2023/02/21 16:38:08;;;;;;;;;29.75;27.00;;;;;16.78;44.05;101013.94;146619;576;46020;-73
2023/02/21 16:41:18;;;;;;;;;18.75;17.25;;;;;16.62;43.55;101010.81;146616;611;46016;-73
2023/02/21 16:44:15;;;;;;;;;29.00;27.25;;;;;16.53;44.63;101020.97;146621;576;46010;-73
2023/02/21 16:47:24;;;;;;;;;24.75;23.75;;;;;15.25;44.59;100838.06;146615;594;46017;-73
2023/02/21 16:50:59;;;;;;;;;32.75;26.75;;;;;14.55;44.92;100736.44;146616;592;46020;-73
2023/02/21 16:53:57;;;;;;;;;28.25;25.00;;;;;16.15;45.23;101031.09;146616;608;46016;-72
2023/02/21 16:56:59;;;;;;;;;28.75;26.25;;;;;16.05;46.16;101030.75;146616;642;47021;-73
2023/02/21 17:00:11;;;;;;;;;26.25;25.00;;;;;15.88;45.82;101044.13;146613;581;46012;-72
2023/02/21 17:03:08;;;;;;;;;32.50;28.75;;;;;15.77;45.52;101042.00;146621;570;46010;-73
2023/02/21 17:06:05;;;;;;;;;23.50;20.25;;;;;15.66;46.09;101039.81;146618;581;46012;-73
2023/02/21 17:09:10;;;;;;;;;40.00;33.50;;;;;15.54;46.90;101043.72;146616;565;46020;-72
2023/02/21 17:12:03;;;;;;;;;25.00;23.00;;;;;15.41;46.48;101045.00;146612;620;46016;-72
2023/02/21 17:15:02;;;;;;;;;28.00;24.00;;;;;15.25;46.59;101044.44;146620;577;46010;-72
2023/02/21 17:18:05;;;;;;;;;21.25;19.75;;;;;15.16;46.29;101054.53;146613;745;46017;-72
2023/02/21 17:21:10;;;;;;;;;21.00;19.50;;;;;15.09;46.65;101044.69;146616;597;46020;-73
2023/02/21 17:24:17;;;;;;;;;21.25;19.50;;;;;13.46;46.09;100762.66;146616;635;46016;-72
2023/02/21 17:27:22;;;;;;;;;26.25;24.75;;;;;14.98;46.80;101038.16;146617;611;46020;-73
2023/02/21 17:30:23;;;;;;;;;24.75;21.75;;;;;14.37;46.76;100954.88;146614;602;46016;-73